sensor_id;sensor_type;location;lat;lon;timestamp;pressure;altitude;pressure_sealevel;temperature;humidity
54122;BME280;40029;58.708;50.190;2022-10-22T00:03:21;100109.00;;;3.94;37.96
54122;BME280;40029;58.708;50.190;2022-10-22T00:05:53;100111.66;;;3.83;38.44
54122;BME280;40029;58.708;50.190;2022-10-22T00:08:24;100107.34;;;3.88;38.53
54122;BME280;40029;58.708;50.190;2022-10-22T00:10:55;100107.41;;;3.73;38.51
54122;BME280;40029;58.708;50.190;2022-10-22T00:13:26;100116.88;;;3.68;38.54
54122;BME280;40029;58.708;50.190;2022-10-22T00:15:56;100115.16;;;3.71;38.50
54122;BME280;40029;58.708;50.190;2022-10-22T00:18:46;100102.25;;;3.76;38.37
54122;BME280;40029;58.708;50.190;2022-10-22T00:21:17;100105.63;;;3.86;38.36
54122;BME280;40029;58.708;50.190;2022-10-22T00:23:48;100104.72;;;3.94;38.05
54122;BME280;40029;58.708;50.190;2022-10-22T00:26:19;100104.81;;;3.78;38.07
54122;BME280;40029;58.708;50.190;2022-10-22T00:28:50;100109.03;;;3.89;38.21
54122;BME280;40029;58.708;50.190;2022-10-22T00:31:39;100109.94;;;3.84;38.63
54122;BME280;40029;58.708;50.190;2022-10-22T00:34:28;100099.69;;;3.68;38.77
54122;BME280;40029;58.708;50.190;2022-10-22T00:36:59;100044.91;;;3.36;38.80
54122;BME280;40029;58.708;50.190;2022-10-22T00:39:48;100110.78;;;3.87;38.12
54122;BME280;40029;58.708;50.190;2022-10-22T00:42:22;100109.13;;;3.79;38.67
54122;BME280;40029;58.708;50.190;2022-10-22T00:48:18;100082.59;;;3.52;38.55
54122;BME280;40029;58.708;50.190;2022-10-22T00:50:55;100120.25;;;3.82;38.76
54122;BME280;40029;58.708;50.190;2022-10-22T00:53:34;100116.81;;;3.83;38.71
54122;BME280;40029;58.708;50.190;2022-10-22T00:56:06;100116.84;;;3.75;38.83
54122;BME280;40029;58.708;50.190;2022-10-22T00:58:43;100115.09;;;3.78;38.82
54122;BME280;40029;58.708;50.190;2022-10-22T01:01:33;100121.94;;;3.91;38.57
54122;BME280;40029;58.708;50.190;2022-10-22T01:04:04;100122.00;;;3.72;38.47
54122;BME280;40029;58.708;50.190;2022-10-22T01:06:35;100089.44;;;3.56;38.65
54122;BME280;40029;58.708;50.190;2022-10-22T01:09:28;100124.56;;;3.80;38.57
54122;BME280;40029;58.708;50.190;2022-10-22T01:18:06;100130.53;;;3.88;38.24
54122;BME280;40029;58.708;50.190;2022-10-22T01:21:08;100120.22;;;3.91;37.98
54122;BME280;40029;58.708;50.190;2022-10-22T01:26:55;100122.78;;;3.96;38.02
54122;BME280;40029;58.708;50.190;2022-10-22T01:30:03;100127.03;;;4.00;38.30
54122;BME280;40029;58.708;50.190;2022-10-22T01:32:40;100129.66;;;3.95;38.37
54122;BME280;40029;58.708;50.190;2022-10-22T01:35:17;100127.94;;;3.96;38.10
54122;BME280;40029;58.708;50.190;2022-10-22T01:38:14;100131.31;;;4.04;38.54
54122;BME280;40029;58.708;50.190;2022-10-22T01:40:47;100118.44;;;3.95;38.16
54122;BME280;40029;58.708;50.190;2022-10-22T01:43:19;100138.16;;;4.07;37.65
54122;BME280;40029;58.708;50.190;2022-10-22T01:45:58;100135.53;;;4.17;37.95
54122;BME280;40029;58.708;50.190;2022-10-22T01:48:36;100134.75;;;4.03;38.19
54122;BME280;40029;58.708;50.190;2022-10-22T01:51:42;100142.44;;;4.11;37.72
54122;BME280;40029;58.708;50.190;2022-10-22T02:00:11;100061.94;;;3.66;38.21
54122;BME280;40029;58.708;50.190;2022-10-22T02:03:06;100132.16;;;4.06;37.70
54122;BME280;40029;58.708;50.190;2022-10-22T02:05:47;100141.59;;;4.10;38.03
54122;BME280;40029;58.708;50.190;2022-10-22T02:08:26;100131.31;;;4.03;38.21
54122;BME280;40029;58.708;50.190;2022-10-22T02:10:59;100127.91;;;4.00;37.81
54122;BME280;40029;58.708;50.190;2022-10-22T02:13:38;100137.34;;;4.05;37.85
54122;BME280;40029;58.708;50.190;2022-10-22T02:16:33;100143.34;;;4.04;37.88
54122;BME280;40029;58.708;50.190;2022-10-22T02:21:51;100144.16;;;4.10;38.02
54122;BME280;40029;58.708;50.190;2022-10-22T02:24:23;100148.47;;;4.10;37.98
54122;BME280;40029;58.708;50.190;2022-10-22T02:27:43;100156.19;;;4.14;37.85
54122;BME280;40029;58.708;50.190;2022-10-22T02:30:19;100147.69;;;3.97;37.90
54122;BME280;40029;58.708;50.190;2022-10-22T02:33:10;100151.16;;;3.91;38.37
54122;BME280;40029;58.708;50.190;2022-10-22T02:35:43;100129.75;;;3.65;38.19
54122;BME280;40029;58.708;50.190;2022-10-22T02:38:15;100134.91;;;3.65;38.42
54122;BME280;40029;58.708;50.190;2022-10-22T02:40:46;100167.47;;;3.92;38.67
54122;BME280;40029;58.708;50.190;2022-10-22T02:43:18;100134.97;;;3.62;39.11
54122;BME280;40029;58.708;50.190;2022-10-22T02:45:49;100114.31;;;3.66;39.03
54122;BME280;40029;58.708;50.190;2022-10-22T02:48:21;100176.88;;;4.02;38.70
54122;BME280;40029;58.708;50.190;2022-10-22T02:50:52;100154.59;;;3.87;38.33
54122;BME280;40029;58.708;50.190;2022-10-22T02:53:23;100167.34;;;4.12;38.56
54122;BME280;40029;58.708;50.190;2022-10-22T02:55:54;100176.78;;;4.16;38.35
54122;BME280;40029;58.708;50.190;2022-10-22T02:58:25;100138.28;;;3.81;38.51
54122;BME280;40029;58.708;50.190;2022-10-22T03:00:55;100179.47;;;3.97;38.84
54122;BME280;40029;58.708;50.190;2022-10-22T03:03:26;100173.50;;;3.85;38.69
54122;BME280;40029;58.708;50.190;2022-10-22T03:06:16;100183.75;;;4.00;38.19
54122;BME280;40029;58.708;50.190;2022-10-22T03:08:47;100177.78;;;3.89;38.76
54122;BME280;40029;58.708;50.190;2022-10-22T03:11:37;100186.38;;;3.86;38.81
54122;BME280;40029;58.708;50.190;2022-10-22T03:14:08;100192.41;;;3.87;39.15
54122;BME280;40029;58.708;50.190;2022-10-22T03:16:39;100182.09;;;3.88;39.15
54122;BME280;40029;58.708;50.190;2022-10-22T03:19:10;100195.03;;;3.74;39.48
54122;BME280;40029;58.708;50.190;2022-10-22T03:22:01;100189.78;;;3.97;39.79
54122;BME280;40029;58.708;50.190;2022-10-22T03:24:38;100193.25;;;3.89;40.47
54122;BME280;40029;58.708;50.190;2022-10-22T03:27:12;100196.63;;;4.05;39.17
54122;BME280;40029;58.708;50.190;2022-10-22T03:29:45;100184.63;;;3.97;39.60
54122;BME280;40029;58.708;50.190;2022-10-22T03:32:17;100202.66;;;3.97;39.08
54122;BME280;40029;58.708;50.190;2022-10-22T03:35:07;100200.03;;;4.07;39.16
54122;BME280;40029;58.708;50.190;2022-10-22T03:37:38;100194.91;;;4.02;39.00
54122;BME280;40029;58.708;50.190;2022-10-22T03:40:10;100188.94;;;3.95;39.48
54122;BME280;40029;58.708;50.190;2022-10-22T03:42:42;100204.34;;;4.12;38.80
54122;BME280;40029;58.708;50.190;2022-10-22T03:45:14;100199.22;;;3.98;39.35
54122;BME280;40029;58.708;50.190;2022-10-22T03:48:03;100206.94;;;4.03;39.36
54122;BME280;40029;58.708;50.190;2022-10-22T03:50:46;100205.28;;;3.91;39.26
54122;BME280;40029;58.708;50.190;2022-10-22T03:53:17;100203.59;;;3.81;39.58
54122;BME280;40029;58.708;50.190;2022-10-22T03:55:49;100210.44;;;3.90;39.95
54122;BME280;40029;58.708;50.190;2022-10-22T03:58:20;100206.19;;;3.83;39.96
54122;BME280;40029;58.708;50.190;2022-10-22T04:00:51;100222.41;;;4.03;39.53
54122;BME280;40029;58.708;50.190;2022-10-22T04:03:22;100218.16;;;3.96;40.05
54122;BME280;40029;58.708;50.190;2022-10-22T04:05:53;100231.03;;;3.93;39.56
54122;BME280;40029;58.708;50.190;2022-10-22T04:08:24;100225.06;;;3.88;40.07
54122;BME280;40029;58.708;50.190;2022-10-22T04:10:55;100228.44;;;3.97;39.72
54122;BME280;40029;58.708;50.190;2022-10-22T04:13:26;100233.59;;;3.99;39.94
54122;BME280;40029;58.708;50.190;2022-10-22T04:18:38;100233.59;;;4.02;39.79
54122;BME280;40029;58.708;50.190;2022-10-22T04:21:12;100229.25;;;4.16;39.64
54122;BME280;40029;58.708;50.190;2022-10-22T04:23:49;100237.88;;;4.05;40.14
54122;BME280;40029;58.708;50.190;2022-10-22T04:26:20;100243.03;;;4.01;39.62
54122;BME280;40029;58.708;50.190;2022-10-22T04:28:52;100244.75;;;4.09;39.80
54122;BME280;40029;58.708;50.190;2022-10-22T04:31:24;100238.72;;;4.08;39.69
54122;BME280;40029;58.708;50.190;2022-10-22T04:33:58;100242.13;;;4.15;39.72
54122;BME280;40029;58.708;50.190;2022-10-22T04:36:29;100232.72;;;4.09;39.70
54122;BME280;40029;58.708;50.190;2022-10-22T04:39:00;100232.69;;;4.14;39.58
54122;BME280;40029;58.708;50.190;2022-10-22T04:41:34;100238.66;;;4.25;39.47
54122;BME280;40029;58.708;50.190;2022-10-22T04:44:06;100236.84;;;4.44;38.84
54122;BME280;40029;58.708;50.190;2022-10-22T04:46:37;100233.41;;;4.42;39.15
54122;BME280;40029;58.708;50.190;2022-10-22T04:49:08;100235.09;;;4.46;39.28
54122;BME280;40029;58.708;50.190;2022-10-22T04:51:39;100232.53;;;4.41;39.51
54122;BME280;40029;58.708;50.190;2022-10-22T04:54:10;100237.66;;;4.46;39.03
54122;BME280;40029;58.708;50.190;2022-10-22T04:56:41;100237.75;;;4.35;39.28
54122;BME280;40029;58.708;50.190;2022-10-22T04:59:12;100241.97;;;4.47;38.97
54122;BME280;40029;58.708;50.190;2022-10-22T05:01:43;100237.72;;;4.38;38.75
54122;BME280;40029;58.708;50.190;2022-10-22T05:04:16;100233.31;;;4.54;39.16
54122;BME280;40029;58.708;50.190;2022-10-22T05:06:47;100244.50;;;4.59;39.10
54122;BME280;40029;58.708;50.190;2022-10-22T05:09:19;100245.44;;;4.43;39.59
54122;BME280;40029;58.708;50.190;2022-10-22T05:11:51;100228.25;;;4.42;39.42
54122;BME280;40029;58.708;50.190;2022-10-22T05:14:23;100246.19;;;4.62;38.84
54122;BME280;40029;58.708;50.190;2022-10-22T05:16:54;100241.91;;;4.59;39.32
54122;BME280;40029;58.708;50.190;2022-10-22T05:19:28;100242.81;;;4.55;39.50
54122;BME280;40029;58.708;50.190;2022-10-22T05:22:01;100252.16;;;4.67;39.30
54122;BME280;40029;58.708;50.190;2022-10-22T05:24:34;100242.69;;;4.72;38.71
54122;BME280;40029;58.708;50.190;2022-10-22T05:27:06;100247.81;;;4.75;38.89
54122;BME280;40029;58.708;50.190;2022-10-22T05:29:37;100235.00;;;4.61;39.34
54122;BME280;40029;58.708;50.190;2022-10-22T05:32:08;100252.13;;;4.78;38.69
54122;BME280;40029;58.708;50.190;2022-10-22T05:34:39;100254.66;;;4.82;39.19
54122;BME280;40029;58.708;50.190;2022-10-22T05:37:10;100210.91;;;4.62;38.89
54122;BME280;40029;58.708;50.190;2022-10-22T05:39:41;100240.91;;;4.79;38.96
54122;BME280;40029;58.708;50.190;2022-10-22T05:42:12;100256.63;;;4.46;39.87
54122;BME280;40029;58.708;50.190;2022-10-22T05:44:43;100248.00;;;4.50;39.36
54122;BME280;40029;58.708;50.190;2022-10-22T05:47:14;100253.13;;;4.49;40.03
54122;BME280;40029;58.708;50.190;2022-10-22T05:49:45;100250.47;;;4.67;39.56
54122;BME280;40029;58.708;50.190;2022-10-22T05:52:16;100251.38;;;4.60;39.78
54122;BME280;40029;58.708;50.190;2022-10-22T05:54:47;100180.19;;;4.25;39.36
54122;BME280;40029;58.708;50.190;2022-10-22T05:57:18;100254.72;;;4.76;38.94
54122;BME280;40029;58.708;50.190;2022-10-22T05:59:49;100235.06;;;4.52;39.54
54122;BME280;40029;58.708;50.190;2022-10-22T06:02:20;100254.75;;;4.68;39.68
54122;BME280;40029;58.708;50.190;2022-10-22T06:04:51;100253.91;;;4.65;39.71
54122;BME280;40029;58.708;50.190;2022-10-22T06:07:22;100262.34;;;4.90;38.91
54122;BME280;40029;58.708;50.190;2022-10-22T06:09:53;100261.31;;;5.12;38.55
54122;BME280;40029;58.708;50.190;2022-10-22T06:12:25;100266.44;;;5.17;38.14
54122;BME280;40029;58.708;50.190;2022-10-22T06:14:56;100222.78;;;4.88;38.28
54122;BME280;40029;58.708;50.190;2022-10-22T06:17:27;100254.63;;;4.90;38.66
54122;BME280;40029;58.708;50.190;2022-10-22T06:19:59;100220.28;;;4.74;38.47
54122;BME280;40029;58.708;50.190;2022-10-22T06:22:30;100257.19;;;4.91;38.23
54122;BME280;40029;58.708;50.190;2022-10-22T06:25:01;100227.88;;;4.95;37.74
54122;BME280;40029;58.708;50.190;2022-10-22T06:27:34;100246.75;;;5.07;37.55
54122;BME280;40029;58.708;50.190;2022-10-22T06:30:05;100274.16;;;5.21;37.66
54122;BME280;40029;58.708;50.190;2022-10-22T06:32:37;100272.50;;;5.16;37.92
54122;BME280;40029;58.708;50.190;2022-10-22T06:35:08;100269.00;;;5.20;37.36
54122;BME280;40029;58.708;50.190;2022-10-22T06:37:39;100270.50;;;5.48;36.72
54122;BME280;40029;58.708;50.190;2022-10-22T06:40:10;100280.00;;;5.43;36.77
54122;BME280;40029;58.708;50.190;2022-10-22T06:42:42;100283.47;;;5.42;36.67
54122;BME280;40029;58.708;50.190;2022-10-22T06:45:14;100282.63;;;5.39;37.10
54122;BME280;40029;58.708;50.190;2022-10-22T06:47:45;100278.28;;;5.42;36.77
54122;BME280;40029;58.708;50.190;2022-10-22T06:50:17;100248.31;;;5.21;37.13
54122;BME280;40029;58.708;50.190;2022-10-22T06:52:48;100283.47;;;5.42;36.54
54122;BME280;40029;58.708;50.190;2022-10-22T06:55:19;100284.22;;;5.55;36.50
54122;BME280;40029;58.708;50.190;2022-10-22T06:57:50;100282.63;;;5.40;36.82
54122;BME280;40029;58.708;50.190;2022-10-22T07:00:21;100283.41;;;5.50;36.52
54122;BME280;40029;58.708;50.190;2022-10-22T07:02:52;100281.72;;;5.46;36.14
54122;BME280;40029;58.708;50.190;2022-10-22T07:05:24;100282.47;;;5.56;36.00
54122;BME280;40029;58.708;50.190;2022-10-22T07:07:55;100269.50;;;5.62;35.34
54122;BME280;40029;58.708;50.190;2022-10-22T07:10:26;100282.53;;;5.53;35.32
54122;BME280;40029;58.708;50.190;2022-10-22T07:12:57;100281.41;;;5.76;35.31
54122;BME280;40029;58.708;50.190;2022-10-22T07:15:29;100285.75;;;5.73;35.28
54122;BME280;40029;58.708;50.190;2022-10-22T07:18:00;100277.03;;;5.82;34.87
54122;BME280;40029;58.708;50.190;2022-10-22T07:20:34;100277.81;;;5.93;34.05
54122;BME280;40029;58.708;50.190;2022-10-22T07:23:05;100279.44;;;6.03;34.26
54122;BME280;40029;58.708;50.190;2022-10-22T07:25:36;100275.94;;;6.09;33.54
54122;BME280;40029;58.708;50.190;2022-10-22T07:28:07;100281.13;;;6.06;33.87
54122;BME280;40029;58.708;50.190;2022-10-22T07:30:39;100286.16;;;6.19;33.58
54122;BME280;40029;58.708;50.190;2022-10-22T07:33:10;100277.53;;;6.19;33.24
54122;BME280;40029;58.708;50.190;2022-10-22T07:35:41;100277.75;;;6.00;33.54
54122;BME280;40029;58.708;50.190;2022-10-22T07:38:12;100277.06;;;5.80;33.09
54122;BME280;40029;58.708;50.190;2022-10-22T07:40:43;100282.88;;;6.05;32.64
54122;BME280;40029;58.708;50.190;2022-10-22T07:43:14;100280.53;;;5.77;33.86
54122;BME280;40029;58.708;50.190;2022-10-22T07:45:46;100288.13;;;5.97;33.26
54122;BME280;40029;58.708;50.190;2022-10-22T07:48:17;100285.47;;;6.04;33.07
54122;BME280;40029;58.708;50.190;2022-10-22T07:50:51;100281.94;;;6.11;33.08
54122;BME280;40029;58.708;50.190;2022-10-22T07:53:22;100274.97;;;6.16;32.82
54122;BME280;40029;58.708;50.190;2022-10-22T07:55:53;100276.84;;;6.03;32.71
54122;BME280;40029;58.708;50.190;2022-10-22T07:58:25;100269.19;;;5.94;32.64
54122;BME280;40029;58.708;50.190;2022-10-22T08:00:57;100276.81;;;6.06;32.01
54122;BME280;40029;58.708;50.190;2022-10-22T08:03:30;100242.41;;;5.98;32.37
54122;BME280;40029;58.708;50.190;2022-10-22T08:06:02;100286.25;;;6.10;32.29
54122;BME280;40029;58.708;50.190;2022-10-22T08:08:33;100273.22;;;6.19;31.70
54122;BME280;40029;58.708;50.190;2022-10-22T08:11:04;100281.31;;;5.87;31.22
54122;BME280;40029;58.708;50.190;2022-10-22T08:13:36;100264.94;;;5.87;30.91
54122;BME280;40029;58.708;50.190;2022-10-22T08:16:07;100277.09;;;5.79;31.32
54122;BME280;40029;58.708;50.190;2022-10-22T08:18:39;100276.16;;;5.87;31.09
54122;BME280;40029;58.708;50.190;2022-10-22T08:21:11;100277.81;;;5.94;30.77
54122;BME280;40029;58.708;50.190;2022-10-22T08:23:43;100279.50;;;6.00;30.25
54122;BME280;40029;58.708;50.190;2022-10-22T08:26:14;100285.34;;;6.14;30.66
54122;BME280;40029;58.708;50.190;2022-10-22T08:28:45;100273.88;;;6.35;30.38
54122;BME280;40029;58.708;50.190;2022-10-22T08:31:16;100277.81;;;6.62;29.88
54122;BME280;40029;58.708;50.190;2022-10-22T08:33:48;100277.69;;;6.73;29.73
54122;BME280;40029;58.708;50.190;2022-10-22T08:36:19;100282.97;;;6.65;29.82
54122;BME280;40029;58.708;50.190;2022-10-22T08:38:51;100277.50;;;6.87;28.79
54122;BME280;40029;58.708;50.190;2022-10-22T08:41:22;100263.84;;;6.74;29.17
54122;BME280;40029;58.708;50.190;2022-10-22T08:44:09;100281.97;;;6.75;29.10
54122;BME280;40029;58.708;50.190;2022-10-22T08:49:29;100273.44;;;6.69;29.05
54122;BME280;40029;58.708;50.190;2022-10-22T08:52:02;100281.13;;;6.73;29.26
54122;BME280;40029;58.708;50.190;2022-10-22T08:54:46;100270.19;;;6.55;29.03
54122;BME280;40029;58.708;50.190;2022-10-22T08:57:45;100255.75;;;6.35;29.20
54122;BME280;40029;58.708;50.190;2022-10-22T09:00:33;100283.06;;;6.59;29.10
54122;BME280;40029;58.708;50.190;2022-10-22T09:08:34;100277.22;;;6.43;29.19
54122;BME280;40029;58.708;50.190;2022-10-22T09:11:32;100284.81;;;6.57;29.29
54122;BME280;40029;58.708;50.190;2022-10-22T09:14:04;100284.56;;;6.74;29.23
54122;BME280;40029;58.708;50.190;2022-10-22T09:22:54;100299.56;;;7.12;27.99
54122;BME280;40029;58.708;50.190;2022-10-22T09:25:31;100288.31;;;7.13;28.19
54122;BME280;40029;58.708;50.190;2022-10-22T09:28:03;100273.69;;;7.09;27.54
54122;BME280;40029;58.708;50.190;2022-10-22T09:30:36;100282.97;;;7.24;27.82
54122;BME280;40029;58.708;50.190;2022-10-22T09:33:26;100273.94;;;7.46;27.32
54122;BME280;40029;58.708;50.190;2022-10-22T09:36:00;100244.22;;;7.18;27.02
54122;BME280;40029;58.708;50.190;2022-10-22T09:38:39;100299.47;;;7.18;27.22
54122;BME280;40029;58.708;50.190;2022-10-22T09:41:15;100283.13;;;7.15;27.49
54122;BME280;40029;58.708;50.190;2022-10-22T09:43:46;100283.06;;;7.18;27.74
54122;BME280;40029;58.708;50.190;2022-10-22T09:46:20;100297.00;;;7.09;27.56
54122;BME280;40029;58.708;50.190;2022-10-22T09:54:25;100293.13;;;6.81;28.08
54122;BME280;40029;58.708;50.190;2022-10-22T09:57:16;100296.34;;;6.96;27.73
54122;BME280;40029;58.708;50.190;2022-10-22T09:59:49;100303.16;;;7.05;27.83
54122;BME280;40029;58.708;50.190;2022-10-22T10:02:25;100299.09;;;6.86;28.15
54122;BME280;40029;58.708;50.190;2022-10-22T10:05:04;100299.69;;;7.03;27.41
54122;BME280;40029;58.708;50.190;2022-10-22T10:07:36;100303.00;;;7.14;26.98
54122;BME280;40029;58.708;50.190;2022-10-22T10:10:25;100295.00;;;7.28;27.38
54122;BME280;40029;58.708;50.190;2022-10-22T10:16:31;100296.16;;;7.09;27.28
54122;BME280;40029;58.708;50.190;2022-10-22T10:24:13;100306.91;;;7.40;26.79
54122;BME280;40029;58.708;50.190;2022-10-22T10:26:53;100307.91;;;7.30;26.08
54122;BME280;40029;58.708;50.190;2022-10-22T10:38:30;100308.66;;;6.79;25.81
54122;BME280;40029;58.708;50.190;2022-10-22T10:49:25;100295.84;;;6.70;25.66
54122;BME280;40029;58.708;50.190;2022-10-22T10:55:37;100303.41;;;6.84;26.07
54122;BME280;40029;58.708;50.190;2022-10-22T11:00:30;100292.13;;;6.88;25.09
54122;BME280;40029;58.708;50.190;2022-10-22T11:03:29;100313.53;;;7.02;25.16
54122;BME280;40029;58.708;50.190;2022-10-22T11:06:16;100309.09;;;7.09;24.98
54122;BME280;40029;58.708;50.190;2022-10-22T11:08:54;100306.66;;;7.01;24.80
54122;BME280;40029;58.708;50.190;2022-10-22T11:11:35;100305.63;;;7.11;25.31
54122;BME280;40029;58.708;50.190;2022-10-22T11:14:16;100310.91;;;7.05;25.37
54122;BME280;40029;58.708;50.190;2022-10-22T11:17:02;100307.56;;;6.97;25.42
54122;BME280;40029;58.708;50.190;2022-10-22T11:19:42;100313.22;;;7.22;25.78
54122;BME280;40029;58.708;50.190;2022-10-22T11:22:24;100304.03;;;7.03;26.49
54122;BME280;40029;58.708;50.190;2022-10-22T11:28:08;100305.44;;;7.23;25.86
54122;BME280;40029;58.708;50.190;2022-10-22T11:30:44;100300.28;;;7.20;26.07
54122;BME280;40029;58.708;50.190;2022-10-22T11:33:23;100309.06;;;7.12;25.82
54122;BME280;40029;58.708;50.190;2022-10-22T11:35:57;100282.41;;;7.04;25.13
54122;BME280;40029;58.708;50.190;2022-10-22T11:38:29;100304.00;;;7.04;25.30
54122;BME280;40029;58.708;50.190;2022-10-22T11:41:06;100296.81;;;7.23;25.06
54122;BME280;40029;58.708;50.190;2022-10-22T11:46:37;100299.22;;;7.34;25.05
54122;BME280;40029;58.708;50.190;2022-10-22T11:51:44;100310.09;;;7.56;25.06
54122;BME280;40029;58.708;50.190;2022-10-22T11:54:49;100299.94;;;7.43;25.07
54122;BME280;40029;58.708;50.190;2022-10-22T11:57:37;100311.38;;;7.30;24.73
54122;BME280;40029;58.708;50.190;2022-10-22T12:00:31;100308.25;;;7.10;25.46
54122;BME280;40029;58.708;50.190;2022-10-22T12:06:21;100310.91;;;7.04;25.42
54122;BME280;40029;58.708;50.190;2022-10-22T12:08:56;100309.06;;;7.12;25.47
54122;BME280;40029;58.708;50.190;2022-10-22T12:11:39;100301.72;;;7.40;25.05
54122;BME280;40029;58.708;50.190;2022-10-22T12:17:20;100307.09;;;7.79;25.09
54122;BME280;40029;58.708;50.190;2022-10-22T12:20:03;100311.00;;;7.53;24.31
54122;BME280;40029;58.708;50.190;2022-10-22T12:22:37;100311.16;;;7.44;24.78
54122;BME280;40029;58.708;50.190;2022-10-22T12:25:17;100316.69;;;7.22;24.97
54122;BME280;40029;58.708;50.190;2022-10-22T12:27:54;100308.72;;;7.33;24.80
54122;BME280;40029;58.708;50.190;2022-10-22T12:30:30;100316.63;;;7.25;24.82
54122;BME280;40029;58.708;50.190;2022-10-22T12:33:06;100315.91;;;7.16;24.87
54122;BME280;40029;58.708;50.190;2022-10-22T12:35:44;100321.28;;;7.04;25.32
54122;BME280;40029;58.708;50.190;2022-10-22T12:38:21;100323.09;;;6.98;25.26
54122;BME280;40029;58.708;50.190;2022-10-22T12:40:55;100319.88;;;6.81;25.78
54122;BME280;40029;58.708;50.190;2022-10-22T12:43:28;100318.88;;;6.93;25.61
54122;BME280;40029;58.708;50.190;2022-10-22T12:46:00;100325.78;;;6.91;25.64
54122;BME280;40029;58.708;50.190;2022-10-22T12:48:37;100317.09;;;6.95;25.28
54122;BME280;40029;58.708;50.190;2022-10-22T12:51:16;100323.16;;;6.94;25.53
54122;BME280;40029;58.708;50.190;2022-10-22T12:53:54;100328.59;;;6.74;25.69
54122;BME280;40029;58.708;50.190;2022-10-22T12:56:28;100331.22;;;6.72;25.90
54122;BME280;40029;58.708;50.190;2022-10-22T12:59:05;100308.19;;;6.51;25.72
54122;BME280;40029;58.708;50.190;2022-10-22T13:01:39;100327.94;;;6.58;26.29
54122;BME280;40029;58.708;50.190;2022-10-22T13:06:44;100332.31;;;6.53;26.16
54122;BME280;40029;58.708;50.190;2022-10-22T13:09:21;100331.50;;;6.51;26.52
54122;BME280;40029;58.708;50.190;2022-10-22T13:12:02;100331.59;;;6.43;26.30
54122;BME280;40029;58.708;50.190;2022-10-22T13:14:36;100337.72;;;6.35;26.49
54122;BME280;40029;58.708;50.190;2022-10-22T13:17:16;100333.38;;;6.38;26.50
54122;BME280;40029;58.708;50.190;2022-10-22T13:22:37;100332.97;;;5.96;27.23
54122;BME280;40029;58.708;50.190;2022-10-22T13:28:29;100320.03;;;5.96;27.51
54122;BME280;40029;58.708;50.190;2022-10-22T13:30:54;100336.28;;;6.09;27.42
54122;BME280;40029;58.708;50.190;2022-10-22T13:33:32;100333.81;;;6.00;27.48
54122;BME280;40029;58.708;50.190;2022-10-22T13:36:04;100349.41;;;5.92;27.86
54122;BME280;40029;58.708;50.190;2022-10-22T13:38:36;100347.72;;;5.84;27.84
54122;BME280;40029;58.708;50.190;2022-10-22T13:43:54;100350.41;;;5.74;28.00
54122;BME280;40029;58.708;50.190;2022-10-22T13:46:25;100348.69;;;5.69;28.31
54122;BME280;40029;58.708;50.190;2022-10-22T13:48:57;100353.06;;;5.64;28.27
54122;BME280;40029;58.708;50.190;2022-10-22T13:51:34;100357.38;;;5.60;28.57
54122;BME280;40029;58.708;50.190;2022-10-22T13:54:20;100355.69;;;5.59;29.19
54122;BME280;40029;58.708;50.190;2022-10-22T13:56:52;100360.94;;;5.47;29.15
54122;BME280;40029;58.708;50.190;2022-10-22T13:59:23;100365.31;;;5.42;29.14
54122;BME280;40029;58.708;50.190;2022-10-22T14:01:54;100365.38;;;5.33;29.54
54122;BME280;40029;58.708;50.190;2022-10-22T14:04:26;100362.81;;;5.28;30.00
54122;BME280;40029;58.708;50.190;2022-10-22T14:06:57;100367.16;;;5.24;29.67
54122;BME280;40029;58.708;50.190;2022-10-22T14:09:28;100366.31;;;5.22;29.92
54122;BME280;40029;58.708;50.190;2022-10-22T14:11:59;100369.75;;;5.21;30.14
54122;BME280;40029;58.708;50.190;2022-10-22T14:14:30;100367.16;;;5.23;29.67
54122;BME280;40029;58.708;50.190;2022-10-22T14:17:01;100362.00;;;5.20;29.82
54122;BME280;40029;58.708;50.190;2022-10-22T14:19:32;100368.91;;;5.16;30.28
54122;BME280;40029;58.708;50.190;2022-10-22T14:22:03;100374.09;;;5.13;30.56
54122;BME280;40029;58.708;50.190;2022-10-22T14:24:34;100372.44;;;5.05;30.55
54122;BME280;40029;58.708;50.190;2022-10-22T14:27:07;100371.59;;;5.06;30.82
54122;BME280;40029;58.708;50.190;2022-10-22T14:29:38;100365.53;;;5.05;30.80
54122;BME280;40029;58.708;50.190;2022-10-22T14:32:17;100366.41;;;5.06;30.82
54122;BME280;40029;58.708;50.190;2022-10-22T14:34:51;100369.03;;;4.98;30.67
54122;BME280;40029;58.708;50.190;2022-10-22T14:37:22;100369.03;;;4.98;31.01
54122;BME280;40029;58.708;50.190;2022-10-22T14:39:54;100369.91;;;4.95;30.71
54122;BME280;40029;58.708;50.190;2022-10-22T14:42:32;100362.16;;;4.92;31.37
54122;BME280;40029;58.708;50.190;2022-10-22T14:45:06;100364.75;;;4.92;31.14
54122;BME280;40029;58.708;50.190;2022-10-22T14:47:37;100366.53;;;4.86;31.37
54122;BME280;40029;58.708;50.190;2022-10-22T14:50:08;100366.53;;;4.86;31.29
54122;BME280;40029;58.708;50.190;2022-10-22T14:52:40;100361.38;;;4.83;31.37
54122;BME280;40029;58.708;50.190;2022-10-22T14:55:15;100297.06;;;4.40;31.38
54122;BME280;40029;58.708;50.190;2022-10-22T14:57:46;100382.16;;;4.55;31.50
54122;BME280;40029;58.708;50.190;2022-10-22T15:00:18;100372.69;;;4.45;31.73
54122;BME280;40029;58.708;50.190;2022-10-22T15:02:50;100378.75;;;4.41;32.31
54122;BME280;40029;58.708;50.190;2022-10-22T15:05:21;100382.22;;;4.38;32.21
54122;BME280;40029;58.708;50.190;2022-10-22T15:07:52;100379.63;;;4.35;32.75
54122;BME280;40029;58.708;50.190;2022-10-22T15:10:24;100388.22;;;4.31;32.64
54122;BME280;40029;58.708;50.190;2022-10-22T15:12:55;100386.53;;;4.25;32.49
54122;BME280;40029;58.708;50.190;2022-10-22T15:15:25;100394.19;;;4.48;32.06